sensor_id;sensor_type;location;lat;lon;timestamp;P1;durP1;ratioP1;P2;durP2;ratioP2
19291;SDS011;9779;51.756;7.450;2023-09-30T00:00:59;11.80;;;3.57;;
19291;SDS011;9779;51.756;7.450;2023-09-30T00:03:25;6.07;;;3.13;;
19291;SDS011;9779;51.756;7.450;2023-09-30T00:05:51;9.23;;;3.10;;
19291;SDS011;9779;51.756;7.450;2023-09-30T00:08:16;14.63;;;3.13;;
19291;SDS011;9779;51.756;7.450;2023-09-30T00:10:42;8.03;;;3.50;;
19291;SDS011;9779;51.756;7.450;2023-09-30T00:13:07;7.80;;;3.80;;
19291;SDS011;9779;51.756;7.450;2023-09-30T00:15:33;11.50;;;3.47;;
19291;SDS011;9779;51.756;7.450;2023-09-30T00:17:59;8.20;;;3.90;;
19291;SDS011;9779;51.756;7.450;2023-09-30T00:20:28;7.93;;;3.10;;
19291;SDS011;9779;51.756;7.450;2023-09-30T00:22:55;10.27;;;3.50;;
19291;SDS011;9779;51.756;7.450;2023-09-30T00:25:20;8.80;;;3.67;;
19291;SDS011;9779;51.756;7.450;2023-09-30T00:27:49;12.20;;;3.70;;
19291;SDS011;9779;51.756;7.450;2023-09-30T00:30:15;10.03;;;3.70;;
19291;SDS011;9779;51.756;7.450;2023-09-30T00:32:40;9.03;;;3.53;;
19291;SDS011;9779;51.756;7.450;2023-09-30T00:35:06;9.73;;;3.57;;
19291;SDS011;9779;51.756;7.450;2023-09-30T00:37:36;11.20;;;3.43;;
19291;SDS011;9779;51.756;7.450;2023-09-30T00:40:04;4.50;;;3.17;;
19291;SDS011;9779;51.756;7.450;2023-09-30T00:42:31;7.37;;;3.30;;
19291;SDS011;9779;51.756;7.450;2023-09-30T00:44:57;5.57;;;3.60;;
19291;SDS011;9779;51.756;7.450;2023-09-30T00:47:23;7.23;;;2.77;;
19291;SDS011;9779;51.756;7.450;2023-09-30T00:49:49;9.83;;;3.73;;
19291;SDS011;9779;51.756;7.450;2023-09-30T00:52:16;8.73;;;3.43;;
19291;SDS011;9779;51.756;7.450;2023-09-30T00:54:43;5.63;;;3.60;;
19291;SDS011;9779;51.756;7.450;2023-09-30T00:57:09;11.37;;;3.77;;
19291;SDS011;9779;51.756;7.450;2023-09-30T00:59:36;7.23;;;4.10;;
19291;SDS011;9779;51.756;7.450;2023-09-30T01:02:02;6.70;;;3.53;;
19291;SDS011;9779;51.756;7.450;2023-09-30T01:04:30;10.93;;;3.57;;
19291;SDS011;9779;51.756;7.450;2023-09-30T01:06:56;7.57;;;3.30;;
19291;SDS011;9779;51.756;7.450;2023-09-30T01:09:24;9.30;;;3.70;;
19291;SDS011;9779;51.756;7.450;2023-09-30T01:11:50;6.57;;;3.07;;
19291;SDS011;9779;51.756;7.450;2023-09-30T01:14:26;7.43;;;3.93;;
19291;SDS011;9779;51.756;7.450;2023-09-30T01:16:53;6.27;;;3.23;;
19291;SDS011;9779;51.756;7.450;2023-09-30T01:19:19;6.73;;;3.40;;
19291;SDS011;9779;51.756;7.450;2023-09-30T01:21:45;9.93;;;3.47;;
19291;SDS011;9779;51.756;7.450;2023-09-30T01:24:16;10.67;;;3.47;;
19291;SDS011;9779;51.756;7.450;2023-09-30T01:26:42;9.73;;;3.47;;
19291;SDS011;9779;51.756;7.450;2023-09-30T01:29:08;10.13;;;3.93;;
19291;SDS011;9779;51.756;7.450;2023-09-30T01:31:37;6.20;;;3.57;;
19291;SDS011;9779;51.756;7.450;2023-09-30T01:34:03;6.27;;;3.10;;
19291;SDS011;9779;51.756;7.450;2023-09-30T01:36:29;9.00;;;3.97;;
19291;SDS011;9779;51.756;7.450;2023-09-30T01:38:55;7.53;;;3.57;;
19291;SDS011;9779;51.756;7.450;2023-09-30T01:41:21;7.43;;;3.90;;
19291;SDS011;9779;51.756;7.450;2023-09-30T01:43:47;12.60;;;4.37;;
19291;SDS011;9779;51.756;7.450;2023-09-30T01:46:13;13.60;;;3.77;;
19291;SDS011;9779;51.756;7.450;2023-09-30T01:48:39;9.37;;;3.90;;
19291;SDS011;9779;51.756;7.450;2023-09-30T01:51:04;9.33;;;4.30;;
19291;SDS011;9779;51.756;7.450;2023-09-30T01:53:31;11.77;;;4.57;;
19291;SDS011;9779;51.756;7.450;2023-09-30T01:55:57;6.03;;;3.93;;
19291;SDS011;9779;51.756;7.450;2023-09-30T01:58:22;9.63;;;3.97;;
19291;SDS011;9779;51.756;7.450;2023-09-30T02:00:49;10.77;;;4.17;;
19291;SDS011;9779;51.756;7.450;2023-09-30T02:03:15;12.93;;;4.40;;
19291;SDS011;9779;51.756;7.450;2023-09-30T02:05:43;13.90;;;5.00;;
19291;SDS011;9779;51.756;7.450;2023-09-30T02:08:09;12.37;;;4.60;;
19291;SDS011;9779;51.756;7.450;2023-09-30T02:10:35;6.73;;;3.90;;
19291;SDS011;9779;51.756;7.450;2023-09-30T02:13:00;16.17;;;4.87;;
19291;SDS011;9779;51.756;7.450;2023-09-30T02:15:26;11.83;;;4.20;;
19291;SDS011;9779;51.756;7.450;2023-09-30T02:17:52;12.53;;;4.60;;
19291;SDS011;9779;51.756;7.450;2023-09-30T02:20:18;14.33;;;5.43;;
19291;SDS011;9779;51.756;7.450;2023-09-30T02:22:50;8.10;;;4.30;;
19291;SDS011;9779;51.756;7.450;2023-09-30T02:25:17;8.93;;;4.13;;
19291;SDS011;9779;51.756;7.450;2023-09-30T02:27:43;9.83;;;4.50;;
19291;SDS011;9779;51.756;7.450;2023-09-30T02:30:09;7.30;;;4.50;;
19291;SDS011;9779;51.756;7.450;2023-09-30T02:32:39;8.93;;;4.60;;
19291;SDS011;9779;51.756;7.450;2023-09-30T02:35:05;7.43;;;3.97;;
19291;SDS011;9779;51.756;7.450;2023-09-30T02:37:34;7.90;;;3.83;;
19291;SDS011;9779;51.756;7.450;2023-09-30T02:40:03;9.83;;;3.90;;
19291;SDS011;9779;51.756;7.450;2023-09-30T02:42:34;11.00;;;4.40;;
19291;SDS011;9779;51.756;7.450;2023-09-30T02:45:01;9.50;;;3.73;;
19291;SDS011;9779;51.756;7.450;2023-09-30T02:47:27;8.50;;;4.20;;
19291;SDS011;9779;51.756;7.450;2023-09-30T02:49:54;15.97;;;4.13;;
19291;SDS011;9779;51.756;7.450;2023-09-30T02:52:21;10.50;;;4.47;;
19291;SDS011;9779;51.756;7.450;2023-09-30T02:54:47;6.27;;;3.50;;
19291;SDS011;9779;51.756;7.450;2023-09-30T02:57:14;10.63;;;3.90;;
19291;SDS011;9779;51.756;7.450;2023-09-30T02:59:40;7.23;;;4.10;;
19291;SDS011;9779;51.756;7.450;2023-09-30T03:02:06;11.27;;;4.27;;
19291;SDS011;9779;51.756;7.450;2023-09-30T03:04:32;8.50;;;4.70;;
19291;SDS011;9779;51.756;7.450;2023-09-30T03:06:57;10.00;;;4.07;;
19291;SDS011;9779;51.756;7.450;2023-09-30T03:09:23;10.90;;;3.80;;
19291;SDS011;9779;51.756;7.450;2023-09-30T03:11:49;6.87;;;4.40;;
19291;SDS011;9779;51.756;7.450;2023-09-30T03:14:15;10.23;;;3.97;;
19291;SDS011;9779;51.756;7.450;2023-09-30T03:16:40;11.03;;;5.07;;
19291;SDS011;9779;51.756;7.450;2023-09-30T03:19:07;9.53;;;3.67;;
19291;SDS011;9779;51.756;7.450;2023-09-30T03:21:34;6.30;;;3.93;;
19291;SDS011;9779;51.756;7.450;2023-09-30T03:24:03;7.47;;;3.97;;
19291;SDS011;9779;51.756;7.450;2023-09-30T03:26:29;6.27;;;4.27;;
19291;SDS011;9779;51.756;7.450;2023-09-30T03:28:56;13.63;;;4.30;;
19291;SDS011;9779;51.756;7.450;2023-09-30T03:31:22;6.50;;;3.83;;
19291;SDS011;9779;51.756;7.450;2023-09-30T03:33:50;7.47;;;4.23;;
19291;SDS011;9779;51.756;7.450;2023-09-30T03:36:19;6.40;;;4.07;;
19291;SDS011;9779;51.756;7.450;2023-09-30T03:38:45;8.83;;;4.27;;
19291;SDS011;9779;51.756;7.450;2023-09-30T03:41:11;10.90;;;4.70;;
19291;SDS011;9779;51.756;7.450;2023-09-30T03:43:38;12.83;;;4.57;;
19291;SDS011;9779;51.756;7.450;2023-09-30T03:46:06;8.30;;;4.23;;
19291;SDS011;9779;51.756;7.450;2023-09-30T03:48:37;8.80;;;4.23;;
19291;SDS011;9779;51.756;7.450;2023-09-30T03:51:11;9.77;;;4.90;;
19291;SDS011;9779;51.756;7.450;2023-09-30T03:53:43;12.10;;;5.00;;
19291;SDS011;9779;51.756;7.450;2023-09-30T03:56:10;12.77;;;4.60;;
19291;SDS011;9779;51.756;7.450;2023-09-30T03:58:37;8.77;;;5.30;;
19291;SDS011;9779;51.756;7.450;2023-09-30T04:01:06;7.53;;;4.40;;
19291;SDS011;9779;51.756;7.450;2023-09-30T04:03:48;12.10;;;4.47;;
19291;SDS011;9779;51.756;7.450;2023-09-30T04:06:14;11.17;;;5.87;;
19291;SDS011;9779;51.756;7.450;2023-09-30T04:08:39;10.70;;;4.97;;
19291;SDS011;9779;51.756;7.450;2023-09-30T04:11:06;8.90;;;4.30;;
19291;SDS011;9779;51.756;7.450;2023-09-30T04:13:32;14.63;;;5.20;;
19291;SDS011;9779;51.756;7.450;2023-09-30T04:15:58;7.67;;;4.80;;
19291;SDS011;9779;51.756;7.450;2023-09-30T04:18:26;12.30;;;4.93;;
19291;SDS011;9779;51.756;7.450;2023-09-30T04:20:52;6.00;;;4.80;;
19291;SDS011;9779;51.756;7.450;2023-09-30T04:23:18;9.90;;;4.53;;
19291;SDS011;9779;51.756;7.450;2023-09-30T04:25:47;12.87;;;5.20;;
19291;SDS011;9779;51.756;7.450;2023-09-30T04:28:13;6.00;;;4.83;;
19291;SDS011;9779;51.756;7.450;2023-09-30T04:30:39;7.00;;;4.80;;
19291;SDS011;9779;51.756;7.450;2023-09-30T04:33:05;11.07;;;5.27;;
19291;SDS011;9779;51.756;7.450;2023-09-30T04:35:31;7.67;;;5.03;;
19291;SDS011;9779;51.756;7.450;2023-09-30T04:37:56;9.70;;;5.20;;
19291;SDS011;9779;51.756;7.450;2023-09-30T04:40:26;8.87;;;4.60;;
19291;SDS011;9779;51.756;7.450;2023-09-30T04:42:52;10.07;;;5.57;;
19291;SDS011;9779;51.756;7.450;2023-09-30T04:45:20;7.07;;;4.70;;
19291;SDS011;9779;51.756;7.450;2023-09-30T04:47:49;8.10;;;4.83;;
19291;SDS011;9779;51.756;7.450;2023-09-30T04:50:15;7.80;;;5.10;;
19291;SDS011;9779;51.756;7.450;2023-09-30T04:52:41;9.97;;;4.67;;
19291;SDS011;9779;51.756;7.450;2023-09-30T04:55:07;10.63;;;4.93;;
19291;SDS011;9779;51.756;7.450;2023-09-30T04:57:33;6.07;;;4.80;;
19291;SDS011;9779;51.756;7.450;2023-09-30T04:59:59;11.80;;;4.90;;
19291;SDS011;9779;51.756;7.450;2023-09-30T05:02:26;7.27;;;5.03;;
19291;SDS011;9779;51.756;7.450;2023-09-30T05:04:52;11.97;;;5.13;;
19291;SDS011;9779;51.756;7.450;2023-09-30T05:07:19;9.93;;;6.13;;
19291;SDS011;9779;51.756;7.450;2023-09-30T05:09:46;10.00;;;5.33;;
19291;SDS011;9779;51.756;7.450;2023-09-30T05:12:12;13.43;;;5.07;;
19291;SDS011;9779;51.756;7.450;2023-09-30T05:14:38;11.00;;;5.80;;
19291;SDS011;9779;51.756;7.450;2023-09-30T05:17:04;16.30;;;5.50;;
19291;SDS011;9779;51.756;7.450;2023-09-30T05:19:30;8.87;;;5.70;;
19291;SDS011;9779;51.756;7.450;2023-09-30T05:21:59;11.57;;;5.50;;
19291;SDS011;9779;51.756;7.450;2023-09-30T05:24:27;9.23;;;5.23;;
19291;SDS011;9779;51.756;7.450;2023-09-30T05:26:53;8.53;;;6.00;;
19291;SDS011;9779;51.756;7.450;2023-09-30T05:29:18;11.10;;;6.00;;
19291;SDS011;9779;51.756;7.450;2023-09-30T05:31:45;12.00;;;5.87;;
19291;SDS011;9779;51.756;7.450;2023-09-30T05:34:11;8.90;;;5.50;;
19291;SDS011;9779;51.756;7.450;2023-09-30T05:36:36;18.17;;;5.93;;
19291;SDS011;9779;51.756;7.450;2023-09-30T05:39:02;21.00;;;6.90;;
19291;SDS011;9779;51.756;7.450;2023-09-30T05:41:29;8.93;;;5.37;;
19291;SDS011;9779;51.756;7.450;2023-09-30T05:43:55;14.97;;;6.00;;
19291;SDS011;9779;51.756;7.450;2023-09-30T05:46:21;15.13;;;5.53;;
19291;SDS011;9779;51.756;7.450;2023-09-30T05:48:47;13.77;;;6.10;;
19291;SDS011;9779;51.756;7.450;2023-09-30T05:51:12;15.47;;;6.43;;
19291;SDS011;9779;51.756;7.450;2023-09-30T05:53:41;19.23;;;5.73;;
19291;SDS011;9779;51.756;7.450;2023-09-30T05:56:07;13.70;;;6.03;;
19291;SDS011;9779;51.756;7.450;2023-09-30T05:58:35;11.47;;;5.40;;
19291;SDS011;9779;51.756;7.450;2023-09-30T06:01:02;15.77;;;5.93;;
19291;SDS011;9779;51.756;7.450;2023-09-30T06:03:32;11.13;;;6.07;;
19291;SDS011;9779;51.756;7.450;2023-09-30T06:05:59;11.87;;;6.60;;
19291;SDS011;9779;51.756;7.450;2023-09-30T06:08:25;25.83;;;6.60;;
19291;SDS011;9779;51.756;7.450;2023-09-30T06:10:50;19.10;;;7.77;;
19291;SDS011;9779;51.756;7.450;2023-09-30T06:13:16;14.53;;;6.57;;
19291;SDS011;9779;51.756;7.450;2023-09-30T06:15:42;10.63;;;5.67;;
19291;SDS011;9779;51.756;7.450;2023-09-30T06:18:08;13.20;;;6.30;;
19291;SDS011;9779;51.756;7.450;2023-09-30T06:20:37;14.30;;;6.67;;
19291;SDS011;9779;51.756;7.450;2023-09-30T06:23:03;9.13;;;5.57;;
19291;SDS011;9779;51.756;7.450;2023-09-30T06:25:28;7.93;;;5.40;;
19291;SDS011;9779;51.756;7.450;2023-09-30T06:27:55;12.93;;;6.27;;
19291;SDS011;9779;51.756;7.450;2023-09-30T06:30:21;20.30;;;7.07;;
19291;SDS011;9779;51.756;7.450;2023-09-30T06:32:54;13.33;;;6.07;;
19291;SDS011;9779;51.756;7.450;2023-09-30T06:35:20;11.27;;;5.60;;
19291;SDS011;9779;51.756;7.450;2023-09-30T06:37:46;16.60;;;5.87;;
19291;SDS011;9779;51.756;7.450;2023-09-30T06:40:12;13.00;;;5.93;;
19291;SDS011;9779;51.756;7.450;2023-09-30T06:42:39;13.80;;;6.63;;
19291;SDS011;9779;51.756;7.450;2023-09-30T06:45:05;17.13;;;6.10;;
19291;SDS011;9779;51.756;7.450;2023-09-30T06:47:32;14.73;;;6.00;;
19291;SDS011;9779;51.756;7.450;2023-09-30T06:50:01;17.40;;;6.67;;
19291;SDS011;9779;51.756;7.450;2023-09-30T06:52:36;12.93;;;6.10;;
19291;SDS011;9779;51.756;7.450;2023-09-30T06:55:03;12.70;;;6.03;;
19291;SDS011;9779;51.756;7.450;2023-09-30T06:57:31;17.43;;;6.50;;
19291;SDS011;9779;51.756;7.450;2023-09-30T07:00:00;13.77;;;7.23;;
19291;SDS011;9779;51.756;7.450;2023-09-30T07:02:36;24.57;;;7.63;;
19291;SDS011;9779;51.756;7.450;2023-09-30T07:05:12;12.13;;;6.23;;
19291;SDS011;9779;51.756;7.450;2023-09-30T07:07:39;15.70;;;6.47;;
19291;SDS011;9779;51.756;7.450;2023-09-30T07:10:06;15.80;;;6.87;;
19291;SDS011;9779;51.756;7.450;2023-09-30T07:12:33;19.40;;;7.17;;
19291;SDS011;9779;51.756;7.450;2023-09-30T07:15:00;16.10;;;6.60;;
19291;SDS011;9779;51.756;7.450;2023-09-30T07:17:30;14.30;;;7.03;;
19291;SDS011;9779;51.756;7.450;2023-09-30T07:19:55;24.43;;;7.40;;
19291;SDS011;9779;51.756;7.450;2023-09-30T07:22:21;15.40;;;6.40;;
19291;SDS011;9779;51.756;7.450;2023-09-30T07:24:47;15.43;;;7.20;;
19291;SDS011;9779;51.756;7.450;2023-09-30T07:27:13;14.63;;;6.87;;
19291;SDS011;9779;51.756;7.450;2023-09-30T07:29:38;11.73;;;6.40;;
19291;SDS011;9779;51.756;7.450;2023-09-30T07:32:04;16.83;;;7.03;;
19291;SDS011;9779;51.756;7.450;2023-09-30T07:34:32;15.03;;;6.73;;
19291;SDS011;9779;51.756;7.450;2023-09-30T07:36:57;14.93;;;7.77;;
19291;SDS011;9779;51.756;7.450;2023-09-30T07:39:23;14.13;;;7.20;;
19291;SDS011;9779;51.756;7.450;2023-09-30T07:41:49;21.33;;;7.40;;
19291;SDS011;9779;51.756;7.450;2023-09-30T07:44:14;24.00;;;6.93;;
19291;SDS011;9779;51.756;7.450;2023-09-30T07:46:40;10.23;;;7.37;;
19291;SDS011;9779;51.756;7.450;2023-09-30T07:49:07;18.90;;;7.50;;
19291;SDS011;9779;51.756;7.450;2023-09-30T07:51:33;16.67;;;7.67;;
19291;SDS011;9779;51.756;7.450;2023-09-30T07:54:00;16.30;;;7.87;;
19291;SDS011;9779;51.756;7.450;2023-09-30T07:56:26;15.87;;;7.20;;
19291;SDS011;9779;51.756;7.450;2023-09-30T07:58:52;20.87;;;8.00;;
19291;SDS011;9779;51.756;7.450;2023-09-30T08:01:17;20.50;;;8.80;;
19291;SDS011;9779;51.756;7.450;2023-09-30T08:03:43;16.67;;;8.27;;
19291;SDS011;9779;51.756;7.450;2023-09-30T08:06:09;14.43;;;8.03;;
19291;SDS011;9779;51.756;7.450;2023-09-30T08:08:35;14.90;;;7.67;;
19291;SDS011;9779;51.756;7.450;2023-09-30T08:11:01;14.43;;;7.43;;
19291;SDS011;9779;51.756;7.450;2023-09-30T08:13:27;15.37;;;8.40;;
19291;SDS011;9779;51.756;7.450;2023-09-30T08:15:54;12.80;;;6.80;;
19291;SDS011;9779;51.756;7.450;2023-09-30T08:18:20;9.20;;;7.23;;
19291;SDS011;9779;51.756;7.450;2023-09-30T08:20:46;18.30;;;7.27;;
19291;SDS011;9779;51.756;7.450;2023-09-30T08:23:12;24.03;;;7.87;;
19291;SDS011;9779;51.756;7.450;2023-09-30T08:25:38;15.83;;;7.10;;
19291;SDS011;9779;51.756;7.450;2023-09-30T08:28:04;16.63;;;6.47;;
19291;SDS011;9779;51.756;7.450;2023-09-30T08:30:30;9.80;;;7.13;;
19291;SDS011;9779;51.756;7.450;2023-09-30T08:32:57;20.73;;;7.53;;
19291;SDS011;9779;51.756;7.450;2023-09-30T08:35:24;15.97;;;7.23;;
19291;SDS011;9779;51.756;7.450;2023-09-30T08:37:49;12.87;;;7.60;;
19291;SDS011;9779;51.756;7.450;2023-09-30T08:40:19;8.67;;;6.30;;
19291;SDS011;9779;51.756;7.450;2023-09-30T08:42:51;15.00;;;7.10;;
19291;SDS011;9779;51.756;7.450;2023-09-30T08:45:17;11.90;;;6.37;;
19291;SDS011;9779;51.756;7.450;2023-09-30T08:47:43;12.43;;;6.50;;
19291;SDS011;9779;51.756;7.450;2023-09-30T08:50:11;15.07;;;6.80;;
19291;SDS011;9779;51.756;7.450;2023-09-30T08:55:31;16.10;;;7.17;;
19291;SDS011;9779;51.756;7.450;2023-09-30T08:57:58;12.10;;;6.53;;
19291;SDS011;9779;51.756;7.450;2023-09-30T09:00:24;12.53;;;6.80;;
19291;SDS011;9779;51.756;7.450;2023-09-30T09:02:50;11.33;;;5.73;;
19291;SDS011;9779;51.756;7.450;2023-09-30T09:05:16;13.40;;;5.93;;
19291;SDS011;9779;51.756;7.450;2023-09-30T09:07:42;8.37;;;5.50;;
19291;SDS011;9779;51.756;7.450;2023-09-30T09:10:11;9.70;;;5.93;;
19291;SDS011;9779;51.756;7.450;2023-09-30T09:12:39;10.50;;;5.80;;
19291;SDS011;9779;51.756;7.450;2023-09-30T09:15:05;7.27;;;5.50;;
19291;SDS011;9779;51.756;7.450;2023-09-30T09:17:42;7.80;;;5.70;;
19291;SDS011;9779;51.756;7.450;2023-09-30T09:20:09;12.23;;;5.43;;
19291;SDS011;9779;51.756;7.450;2023-09-30T09:22:39;12.30;;;5.27;;
19291;SDS011;9779;51.756;7.450;2023-09-30T09:25:06;6.20;;;4.50;;
19291;SDS011;9779;51.756;7.450;2023-09-30T09:27:35;12.37;;;5.03;;
19291;SDS011;9779;51.756;7.450;2023-09-30T09:33:03;7.40;;;4.10;;
19291;SDS011;9779;51.756;7.450;2023-09-30T09:35:30;11.90;;;4.30;;
19291;SDS011;9779;51.756;7.450;2023-09-30T09:37:58;8.77;;;3.80;;
19291;SDS011;9779;51.756;7.450;2023-09-30T09:40:28;12.10;;;4.27;;
19291;SDS011;9779;51.756;7.450;2023-09-30T09:42:55;6.77;;;3.63;;
19291;SDS011;9779;51.756;7.450;2023-09-30T09:45:41;7.67;;;4.13;;
19291;SDS011;9779;51.756;7.450;2023-09-30T09:48:08;8.70;;;3.13;;
19291;SDS011;9779;51.756;7.450;2023-09-30T09:50:34;6.43;;;3.17;;
19291;SDS011;9779;51.756;7.450;2023-09-30T09:53:03;4.10;;;3.00;;
19291;SDS011;9779;51.756;7.450;2023-09-30T09:55:29;5.43;;;2.90;;
19291;SDS011;9779;51.756;7.450;2023-09-30T09:57:55;6.20;;;3.23;;
19291;SDS011;9779;51.756;7.450;2023-09-30T10:00:24;6.27;;;3.20;;
19291;SDS011;9779;51.756;7.450;2023-09-30T10:02:51;10.47;;;3.30;;
19291;SDS011;9779;51.756;7.450;2023-09-30T10:05:17;10.30;;;3.40;;
19291;SDS011;9779;51.756;7.450;2023-09-30T10:07:51;11.70;;;3.47;;
19291;SDS011;9779;51.756;7.450;2023-09-30T10:10:18;5.67;;;3.10;;
19291;SDS011;9779;51.756;7.450;2023-09-30T10:12:45;3.93;;;2.80;;
19291;SDS011;9779;51.756;7.450;2023-09-30T10:17:57;7.90;;;3.70;;
19291;SDS011;9779;51.756;7.450;2023-09-30T10:20:32;5.20;;;3.10;;
19291;SDS011;9779;51.756;7.450;2023-09-30T10:25:51;6.83;;;2.60;;
19291;SDS011;9779;51.756;7.450;2023-09-30T10:28:39;4.20;;;2.70;;
19291;SDS011;9779;51.756;7.450;2023-09-30T10:31:20;3.57;;;2.70;;
19291;SDS011;9779;51.756;7.450;2023-09-30T10:36:26;6.13;;;2.70;;
19291;SDS011;9779;51.756;7.450;2023-09-30T10:38:53;6.27;;;3.07;;
19291;SDS011;9779;51.756;7.450;2023-09-30T10:46:57;3.20;;;2.23;;
19291;SDS011;9779;51.756;7.450;2023-09-30T10:51:55;4.50;;;2.20;;
19291;SDS011;9779;51.756;7.450;2023-09-30T10:54:25;3.90;;;2.70;;
19291;SDS011;9779;51.756;7.450;2023-09-30T10:56:56;6.03;;;2.40;;
19291;SDS011;9779;51.756;7.450;2023-09-30T10:59:28;4.87;;;2.80;;
19291;SDS011;9779;51.756;7.450;2023-09-30T11:02:00;3.77;;;2.63;;
19291;SDS011;9779;51.756;7.450;2023-09-30T11:04:26;5.57;;;2.13;;
19291;SDS011;9779;51.756;7.450;2023-09-30T11:06:54;5.23;;;2.63;;
19291;SDS011;9779;51.756;7.450;2023-09-30T11:09:21;5.57;;;2.60;;
19291;SDS011;9779;51.756;7.450;2023-09-30T11:16:51;10.33;;;2.57;;
19291;SDS011;9779;51.756;7.450;2023-09-30T11:19:17;6.93;;;2.40;;
19291;SDS011;9779;51.756;7.450;2023-09-30T11:21:50;2.03;;;1.73;;
19291;SDS011;9779;51.756;7.450;2023-09-30T11:24:25;4.93;;;2.03;;
19291;SDS011;9779;51.756;7.450;2023-09-30T11:26:53;5.47;;;2.30;;
19291;SDS011;9779;51.756;7.450;2023-09-30T11:29:22;4.27;;;2.20;;
19291;SDS011;9779;51.756;7.450;2023-09-30T11:31:48;3.83;;;2.40;;
19291;SDS011;9779;51.756;7.450;2023-09-30T11:34:16;5.50;;;2.20;;
19291;SDS011;9779;51.756;7.450;2023-09-30T11:36:49;4.80;;;2.43;;
19291;SDS011;9779;51.756;7.450;2023-09-30T11:39:22;6.43;;;2.47;;
19291;SDS011;9779;51.756;7.450;2023-09-30T11:41:52;9.23;;;2.43;;
19291;SDS011;9779;51.756;7.450;2023-09-30T11:44:18;4.67;;;2.30;;
19291;SDS011;9779;51.756;7.450;2023-09-30T12:02:21;4.38;;;2.53;;
19291;SDS011;9779;51.756;7.450;2023-09-30T12:04:46;3.70;;;2.30;;
19291;SDS011;9779;51.756;7.450;2023-09-30T12:07:12;5.43;;;2.53;;
19291;SDS011;9779;51.756;7.450;2023-09-30T12:09:38;2.47;;;1.95;;
19291;SDS011;9779;51.756;7.450;2023-09-30T12:12:04;4.77;;;3.33;;
19291;SDS011;9779;51.756;7.450;2023-09-30T12:14:34;4.28;;;2.53;;
19291;SDS011;9779;51.756;7.450;2023-09-30T12:16:59;5.35;;;2.90;;
19291;SDS011;9779;51.756;7.450;2023-09-30T12:19:25;6.97;;;2.88;;
19291;SDS011;9779;51.756;7.450;2023-09-30T12:21:51;4.28;;;3.13;;
19291;SDS011;9779;51.756;7.450;2023-09-30T12:24:17;6.00;;;3.08;;
19291;SDS011;9779;51.756;7.450;2023-09-30T12:26:47;6.20;;;3.10;;
19291;SDS011;9779;51.756;7.450;2023-09-30T12:29:16;4.35;;;3.00;;
19291;SDS011;9779;51.756;7.450;2023-09-30T12:31:46;6.13;;;3.03;;
19291;SDS011;9779;51.756;7.450;2023-09-30T12:34:16;3.10;;;2.30;;
19291;SDS011;9779;51.756;7.450;2023-09-30T12:36:42;3.40;;;2.47;;
19291;SDS011;9779;51.756;7.450;2023-09-30T12:39:08;5.47;;;2.65;;
19291;SDS011;9779;51.756;7.450;2023-09-30T12:41:38;6.15;;;2.40;;
19291;SDS011;9779;51.756;7.450;2023-09-30T12:44:05;5.82;;;2.80;;
19291;SDS011;9779;51.756;7.450;2023-09-30T12:46:34;5.25;;;3.20;;
19291;SDS011;9779;51.756;7.450;2023-09-30T12:49:02;8.80;;;2.67;;
19291;SDS011;9779;51.756;7.450;2023-09-30T12:51:28;6.70;;;3.03;;
19291;SDS011;9779;51.756;7.450;2023-09-30T12:53:54;9.13;;;3.45;;
19291;SDS011;9779;51.756;7.450;2023-09-30T12:56:20;6.60;;;3.15;;
19291;SDS011;9779;51.756;7.450;2023-09-30T12:58:46;4.95;;;2.75;;
19291;SDS011;9779;51.756;7.450;2023-09-30T13:01:11;3.55;;;2.58;;
19291;SDS011;9779;51.756;7.450;2023-09-30T13:03:37;3.22;;;2.47;;
19291;SDS011;9779;51.756;7.450;2023-09-30T13:06:03;3.95;;;2.00;;
19291;SDS011;9779;51.756;7.450;2023-09-30T13:08:29;3.35;;;2.55;;
19291;SDS011;9779;51.756;7.450;2023-09-30T13:11:03;4.38;;;2.45;;
19291;SDS011;9779;51.756;7.450;2023-09-30T13:13:29;4.25;;;2.53;;
19291;SDS011;9779;51.756;7.450;2023-09-30T13:15:56;4.10;;;2.75;;
19291;SDS011;9779;51.756;7.450;2023-09-30T13:18:22;3.42;;;2.35;;
19291;SDS011;9779;51.756;7.450;2023-09-30T13:20:48;3.00;;;2.50;;
19291;SDS011;9779;51.756;7.450;2023-09-30T13:23:13;5.38;;;2.47;;
19291;SDS011;9779;51.756;7.450;2023-09-30T13:25:39;7.43;;;3.00;;
19291;SDS011;9779;51.756;7.450;2023-09-30T13:28:05;3.85;;;2.53;;
19291;SDS011;9779;51.756;7.450;2023-09-30T13:30:30;8.02;;;3.10;;
19291;SDS011;9779;51.756;7.450;2023-09-30T13:32:57;5.78;;;3.03;;
19291;SDS011;9779;51.756;7.450;2023-09-30T13:35:22;4.22;;;3.05;;
19291;SDS011;9779;51.756;7.450;2023-09-30T13:37:48;6.03;;;2.45;;
19291;SDS011;9779;51.756;7.450;2023-09-30T13:40:13;9.30;;;3.03;;
19291;SDS011;9779;51.756;7.450;2023-09-30T13:42:39;4.40;;;3.22;;
19291;SDS011;9779;51.756;7.450;2023-09-30T13:45:05;4.65;;;2.65;;
19291;SDS011;9779;51.756;7.450;2023-09-30T13:47:31;4.82;;;3.03;;
19291;SDS011;9779;51.756;7.450;2023-09-30T13:49:57;2.85;;;2.15;;
19291;SDS011;9779;51.756;7.450;2023-09-30T13:52:23;3.58;;;3.00;;
19291;SDS011;9779;51.756;7.450;2023-09-30T13:54:49;5.40;;;2.72;;
19291;SDS011;9779;51.756;7.450;2023-09-30T13:57:14;4.32;;;2.97;;
19291;SDS011;9779;51.756;7.450;2023-09-30T13:59:40;3.03;;;2.67;;
19291;SDS011;9779;51.756;7.450;2023-09-30T14:02:07;4.13;;;2.53;;
19291;SDS011;9779;51.756;7.450;2023-09-30T14:04:32;3.83;;;2.72;;
19291;SDS011;9779;51.756;7.450;2023-09-30T14:07:18;4.15;;;2.65;;
19291;SDS011;9779;51.756;7.450;2023-09-30T14:09:44;3.40;;;3.05;;
19291;SDS011;9779;51.756;7.450;2023-09-30T14:12:10;4.72;;;3.00;;
19291;SDS011;9779;51.756;7.450;2023-09-30T14:14:35;6.60;;;3.38;;
19291;SDS011;9779;51.756;7.450;2023-09-30T14:17:01;4.00;;;3.00;;
19291;SDS011;9779;51.756;7.450;2023-09-30T14:19:36;4.20;;;2.60;;
19291;SDS011;9779;51.756;7.450;2023-09-30T14:22:03;4.28;;;3.10;;
19291;SDS011;9779;51.756;7.450;2023-09-30T14:24:30;5.43;;;3.58;;
19291;SDS011;9779;51.756;7.450;2023-09-30T14:26:59;3.08;;;2.83;;
19291;SDS011;9779;51.756;7.450;2023-09-30T14:29:28;4.65;;;3.28;;
19291;SDS011;9779;51.756;7.450;2023-09-30T14:31:55;5.45;;;3.20;;
19291;SDS011;9779;51.756;7.450;2023-09-30T14:34:21;4.35;;;3.67;;
19291;SDS011;9779;51.756;7.450;2023-09-30T14:36:47;6.55;;;3.38;;
19291;SDS011;9779;51.756;7.450;2023-09-30T14:39:13;6.35;;;3.17;;
19291;SDS011;9779;51.756;7.450;2023-09-30T14:41:40;6.10;;;3.60;;
19291;SDS011;9779;51.756;7.450;2023-09-30T14:44:09;3.25;;;2.95;;
19291;SDS011;9779;51.756;7.450;2023-09-30T14:46:36;3.40;;;3.10;;
19291;SDS011;9779;51.756;7.450;2023-09-30T14:49:03;4.38;;;2.83;;
19291;SDS011;9779;51.756;7.450;2023-09-30T14:51:29;4.93;;;3.05;;
19291;SDS011;9779;51.756;7.450;2023-09-30T14:53:54;7.43;;;3.47;;
19291;SDS011;9779;51.756;7.450;2023-09-30T14:56:20;7.38;;;3.00;;
19291;SDS011;9779;51.756;7.450;2023-09-30T14:58:46;4.97;;;3.30;;
19291;SDS011;9779;51.756;7.450;2023-09-30T15:01:12;4.90;;;3.38;;
19291;SDS011;9779;51.756;7.450;2023-09-30T15:03:38;6.05;;;3.35;;
19291;SDS011;9779;51.756;7.450;2023-09-30T15:06:04;7.07;;;2.60;;
19291;SDS011;9779;51.756;7.450;2023-09-30T15:08:31;3.78;;;2.65;;
19291;SDS011;9779;51.756;7.450;2023-09-30T15:11:00;3.60;;;2.50;;
19291;SDS011;9779;51.756;7.450;2023-09-30T15:13:26;7.40;;;2.83;;
19291;SDS011;9779;51.756;7.450;2023-09-30T15:15:53;6.20;;;2.50;;
19291;SDS011;9779;51.756;7.450;2023-09-30T15:18:18;4.07;;;2.50;;
19291;SDS011;9779;51.756;7.450;2023-09-30T15:20:44;4.63;;;2.90;;
19291;SDS011;9779;51.756;7.450;2023-09-30T15:23:11;4.47;;;2.38;;
19291;SDS011;9779;51.756;7.450;2023-09-30T15:25:41;2.78;;;2.30;;
19291;SDS011;9779;51.756;7.450;2023-09-30T15:28:08;3.88;;;2.55;;
19291;SDS011;9779;51.756;7.450;2023-09-30T15:30:33;6.07;;;2.70;;
19291;SDS011;9779;51.756;7.450;2023-09-30T15:33:00;4.28;;;2.42;;
19291;SDS011;9779;51.756;7.450;2023-09-30T15:35:27;4.90;;;2.78;;
19291;SDS011;9779;51.756;7.450;2023-09-30T15:37:53;5.68;;;2.97;;